createdAt,value
2019-02-09T00:00:00.722Z,45.10
2019-02-09T00:02:35.278Z,45.56
2019-02-09T00:05:06.026Z,45.42
2019-02-09T00:07:36.851Z,45.73
2019-02-09T00:10:08.097Z,46.36
2019-02-09T00:12:39.542Z,47.64
2019-02-09T00:15:09.885Z,47.45
2019-02-09T00:17:42.697Z,47.83
2019-02-09T00:20:13.100Z,49.37
2019-02-09T00:22:43.720Z,48.53
2019-02-09T00:25:14.446Z,49.53
2019-02-09T00:27:45.184Z,50.24
2019-02-09T00:30:17.851Z,51.10
2019-02-09T00:32:50.418Z,50.83
2019-02-09T00:35:21.551Z,51.49
2019-02-09T00:37:52.281Z,51.69
2019-02-09T00:40:23.631Z,51.41
2019-02-09T00:42:56.295Z,51.48
2019-02-09T00:45:26.869Z,51.45
2019-02-09T00:48:00.388Z,50.57
2019-02-09T00:50:31.031Z,51.23
2019-02-09T00:53:02.549Z,51.78
2019-02-09T00:55:33.165Z,52.10
2019-02-09T00:58:03.830Z,52.49
2019-02-09T01:00:34.159Z,52.04
2019-02-09T01:03:07.280Z,52.51
2019-02-09T01:05:43.238Z,52.25
2019-02-09T01:08:15.693Z,51.97
2019-02-09T01:10:46.493Z,52.52
2019-02-09T01:13:18.478Z,52.48
2019-02-09T01:15:50.241Z,51.97
2019-02-09T01:18:21.916Z,53.17
2019-02-09T01:20:52.568Z,53.48
2019-02-09T01:23:25.911Z,53.08
2019-02-09T01:25:58.626Z,52.13
2019-02-09T01:28:29.027Z,52.09
2019-02-09T01:30:59.835Z,52.50
2019-02-09T01:33:30.880Z,51.42
2019-02-09T01:36:01.100Z,52.43
2019-02-09T01:38:31.354Z,52.36
2019-02-09T01:41:03.184Z,51.00
2019-02-09T01:43:37.321Z,50.83
2019-02-09T01:46:07.771Z,50.11
2019-02-09T01:48:38.079Z,49.48
2019-02-09T01:51:09.938Z,50.41
2019-02-09T01:53:42.764Z,50.18
2019-02-09T01:56:13.579Z,49.81
2019-02-09T01:58:44.335Z,50.38
2019-02-09T02:01:16.408Z,50.79
2019-02-09T02:03:47.073Z,49.83
2019-02-09T02:06:18.380Z,51.17
2019-02-09T02:08:51.945Z,49.99
2019-02-09T02:11:23.065Z,49.86
2019-02-09T02:13:54.176Z,49.47
2019-02-09T02:16:25.454Z,49.49
2019-02-09T02:18:56.643Z,49.34
2019-02-09T02:21:28.154Z,49.20
2019-02-09T02:24:01.204Z,48.88
2019-02-09T02:26:32.296Z,49.22
2019-02-09T02:29:02.466Z,48.67
2019-02-09T02:31:32.778Z,49.64
2019-02-09T02:34:03.480Z,49.30
2019-02-09T02:36:35.236Z,49.83
2019-02-09T02:39:10.817Z,50.11
2019-02-09T02:41:41.353Z,50.03
2019-02-09T02:44:15.948Z,51.64
2019-02-09T02:46:47.445Z,51.04
2019-02-09T02:49:19.034Z,50.73
2019-02-09T02:51:49.995Z,50.73
2019-02-09T02:54:21.241Z,50.00
2019-02-09T02:56:51.928Z,51.06
2019-02-09T02:59:22.219Z,50.47
2019-02-09T03:01:53.465Z,51.19
2019-02-09T03:04:24.061Z,51.56
2019-02-09T03:06:54.785Z,51.89
2019-02-09T03:09:26.043Z,51.61
2019-02-09T03:11:59.695Z,50.25
2019-02-09T03:14:30.934Z,50.71
2019-02-09T03:17:01.598Z,51.15
2019-02-09T03:19:32.324Z,50.35
2019-02-09T03:22:02.525Z,50.23
2019-02-09T03:24:32.756Z,52.02
2019-02-09T03:27:05.797Z,54.12
2019-02-09T03:29:36.010Z,54.76
2019-02-09T03:32:06.214Z,54.12
2019-02-09T03:34:37.788Z,52.94
2019-02-09T03:37:08.324Z,52.94
2019-02-09T03:39:39.977Z,52.57
2019-02-09T03:42:11.177Z,52.36
2019-02-09T03:44:43.203Z,51.79
2019-02-09T03:47:15.389Z,51.67
2019-02-09T03:49:47.373Z,50.98
2019-02-09T03:52:18.435Z,50.24
2019-02-09T03:54:50.102Z,49.63
2019-02-09T03:57:21.814Z,49.50
2019-02-09T03:59:51.995Z,51.54
2019-02-09T04:02:24.304Z,53.41
2019-02-09T04:04:54.493Z,53.66
2019-02-09T04:07:25.205Z,52.40
2019-02-09T04:09:57.664Z,53.32
2019-02-09T04:12:30.262Z,53.16
2019-02-09T04:15:02.799Z,51.77
2019-02-09T04:17:35.479Z,52.06
2019-02-09T04:20:10.162Z,51.97
2019-02-09T04:22:41.717Z,50.49
2019-02-09T04:25:13.932Z,49.64
2019-02-09T04:27:45.833Z,50.14
2019-02-09T04:30:20.446Z,50.58
2019-02-09T04:32:52.390Z,51.67
2019-02-09T04:35:24.921Z,53.52
2019-02-09T04:37:55.498Z,53.45
2019-02-09T04:40:29.460Z,51.65
2019-02-09T04:43:00.964Z,51.28
2019-02-09T04:45:34.514Z,51.98
2019-02-09T04:48:06.583Z,51.80
2019-02-09T04:50:39.666Z,51.03
2019-02-09T04:53:12.249Z,50.12
2019-02-09T04:55:44.110Z,51.22
2019-02-09T04:58:16.071Z,51.27
2019-02-09T05:00:47.192Z,52.29
2019-02-09T05:03:19.716Z,52.73
2019-02-09T05:05:52.454Z,52.00
2019-02-09T05:08:23.105Z,53.11
2019-02-09T05:10:55.283Z,55.50
2019-02-09T05:13:26.771Z,52.68
2019-02-09T05:15:58.883Z,52.65
2019-02-09T05:18:30.923Z,52.37
2019-02-09T05:21:03.699Z,52.75
2019-02-09T05:23:36.901Z,53.27
2019-02-09T05:26:08.882Z,53.24
2019-02-09T05:28:39.962Z,53.35
2019-02-09T05:31:12.387Z,53.70
2019-02-09T05:33:43.012Z,55.40
2019-02-09T05:36:18.291Z,56.06
2019-02-09T05:38:48.888Z,54.57
2019-02-09T05:41:20.218Z,52.90
2019-02-09T05:43:51.253Z,55.25
2019-02-09T05:46:24.576Z,52.89
2019-02-09T05:48:57.027Z,53.07
2019-02-09T05:51:29.612Z,52.74
2019-02-09T05:54:00.959Z,51.67
2019-02-09T05:56:35.402Z,52.36
2019-02-09T05:59:08.053Z,52.04
2019-02-09T06:01:39.065Z,52.09
2019-02-09T06:04:09.838Z,54.75
2019-02-09T06:06:42.528Z,54.80
2019-02-09T06:09:13.156Z,54.46
2019-02-09T06:11:45.021Z,52.91
2019-02-09T06:14:15.568Z,52.63
2019-02-09T06:16:47.784Z,52.39
2019-02-09T06:19:18.344Z,52.07
2019-02-09T06:21:48.539Z,51.91
2019-02-09T06:24:19.460Z,51.61
2019-02-09T06:26:50.858Z,52.64
2019-02-09T06:29:21.115Z,52.38
2019-02-09T06:31:52.105Z,51.24
2019-02-09T06:34:22.360Z,51.87
2019-02-09T06:36:55.876Z,51.63
2019-02-09T06:39:31.384Z,49.74
2019-02-09T06:42:02.810Z,48.93
2019-02-09T06:44:34.042Z,50.33
2019-02-09T06:47:07.802Z,51.24
2019-02-09T06:49:39.778Z,50.31
2019-02-09T06:52:09.980Z,51.50
2019-02-09T06:54:40.283Z,50.88
2019-02-09T06:57:11.808Z,50.64
2019-02-09T06:59:42.505Z,50.11
2019-02-09T07:02:15.338Z,49.27
2019-02-09T07:04:46.729Z,49.43
2019-02-09T07:07:18.684Z,49.93
2019-02-09T07:09:52.282Z,48.97
2019-02-09T07:12:25.191Z,48.61
2019-02-09T07:14:55.455Z,47.54
2019-02-09T07:17:26.642Z,49.54
2019-02-09T07:19:56.949Z,48.09
2019-02-09T07:22:30.017Z,49.52
2019-02-09T07:25:00.348Z,48.72
2019-02-09T07:27:32.405Z,49.91
2019-02-09T07:30:03.126Z,50.62
2019-02-09T07:32:34.942Z,48.10
2019-02-09T07:35:06.940Z,48.21
2019-02-09T07:37:37.850Z,48.92
2019-02-09T07:40:12.233Z,49.51
2019-02-09T07:42:44.528Z,47.47
2019-02-09T07:45:18.077Z,48.40
2019-02-09T07:47:50.675Z,48.17
2019-02-09T07:50:22.945Z,48.12
2019-02-09T07:52:54.941Z,47.09
2019-02-09T07:55:26.534Z,47.00
2019-02-09T07:57:58.765Z,46.85
2019-02-09T08:00:30.235Z,47.92
2019-02-09T08:03:02.817Z,46.61
2019-02-09T08:05:36.739Z,46.26
2019-02-09T08:08:08.820Z,46.66
2019-02-09T08:10:40.462Z,46.97
2019-02-09T08:13:12.411Z,48.44
2019-02-09T08:15:45.805Z,46.45
2019-02-09T08:18:16.669Z,46.78
2019-02-09T08:20:49.033Z,46.95
2019-02-09T08:23:19.444Z,46.44
2019-02-09T08:25:52.129Z,46.79
2019-02-09T08:28:24.002Z,47.29
2019-02-09T08:30:56.047Z,46.49
2019-02-09T08:33:27.082Z,47.41
2019-02-09T08:35:58.155Z,46.16
2019-02-09T08:38:28.407Z,45.83
2019-02-09T08:40:58.902Z,47.26
2019-02-09T08:43:30.600Z,46.77
2019-02-09T08:46:01.250Z,46.33
2019-02-09T08:48:33.937Z,45.92
2019-02-09T08:51:10.349Z,47.21
2019-02-09T08:53:43.633Z,46.56
2019-02-09T08:56:15.583Z,46.91
2019-02-09T08:58:47.912Z,49.12
2019-02-09T09:01:19.482Z,46.83
2019-02-09T09:03:52.172Z,46.21
2019-02-09T09:06:25.856Z,45.31
2019-02-09T09:08:57.800Z,46.12
2019-02-09T09:11:28.772Z,47.05
2019-02-09T09:14:00.721Z,46.20
2019-02-09T09:16:32.255Z,45.88
2019-02-09T09:19:03.831Z,45.72
2019-02-09T09:21:34.832Z,45.04
2019-02-09T09:24:05.907Z,44.42
2019-02-09T09:26:37.902Z,44.43
2019-02-09T09:29:09.633Z,45.38
2019-02-09T09:31:41.050Z,46.21
2019-02-09T09:34:11.848Z,45.07
2019-02-09T09:36:43.530Z,45.17
2019-02-09T09:39:13.840Z,45.36
2019-02-09T09:41:45.760Z,44.84
2019-02-09T09:44:17.726Z,43.72
2019-02-09T09:46:49.234Z,45.13
2019-02-09T09:49:20.509Z,45.85
2019-02-09T09:51:50.757Z,47.17
2019-02-09T09:54:21.441Z,46.51
2019-02-09T09:56:53.563Z,45.95
2019-02-09T09:59:25.615Z,45.24
2019-02-09T10:01:56.292Z,44.74
2019-02-09T10:04:27.914Z,43.45
2019-02-09T10:06:59.403Z,43.50
2019-02-09T10:09:35.728Z,43.15
2019-02-09T10:12:06.366Z,43.42
2019-02-09T10:14:38.217Z,44.20
2019-02-09T10:17:09.364Z,42.53
2019-02-09T10:19:40.472Z,42.30
2019-02-09T10:22:11.414Z,43.00
2019-02-09T10:24:44.153Z,42.39
2019-02-09T10:27:16.075Z,42.43
2019-02-09T10:29:47.848Z,42.55
2019-02-09T10:32:19.100Z,43.02
2019-02-09T10:34:50.288Z,43.22
2019-02-09T10:37:21.294Z,42.62
2019-02-09T10:39:52.379Z,44.80
2019-02-09T10:42:22.860Z,44.82
2019-02-09T10:44:53.977Z,44.03
2019-02-09T10:47:25.501Z,43.97
2019-02-09T10:49:58.291Z,44.97
2019-02-09T10:52:28.895Z,44.94
2019-02-09T10:54:59.213Z,43.79
2019-02-09T10:57:30.811Z,43.15
2019-02-09T11:00:03.017Z,42.33
2019-02-09T11:02:33.198Z,42.39
2019-02-09T11:05:03.632Z,42.22
2019-02-09T11:07:34.693Z,41.46
2019-02-09T11:10:09.783Z,40.60
2019-02-09T11:12:40.754Z,42.12
2019-02-09T11:15:14.866Z,40.72
2019-02-09T11:17:46.398Z,41.12
2019-02-09T11:20:19.094Z,41.30
2019-02-09T11:22:50.967Z,41.22
2019-02-09T11:25:22.181Z,40.11
2019-02-09T11:27:53.310Z,39.60
2019-02-09T11:30:27.029Z,41.09
2019-02-09T11:33:02.085Z,39.97
2019-02-09T11:35:31.045Z,40.17
2019-02-09T11:38:01.797Z,39.94
2019-02-09T11:40:33.843Z,38.74
2019-02-09T11:43:06.029Z,39.79
2019-02-09T11:45:40.538Z,40.01
2019-02-09T11:48:13.324Z,39.03
2019-02-09T11:50:45.745Z,39.66
2019-02-09T11:53:16.869Z,38.99
2019-02-09T11:55:49.109Z,39.24
2019-02-09T11:58:21.662Z,41.22
2019-02-09T12:00:54.734Z,41.11
2019-02-09T12:03:26.347Z,43.23
2019-02-09T12:05:57.072Z,42.84
2019-02-09T12:08:28.261Z,43.00
2019-02-09T12:10:59.280Z,42.66
2019-02-09T12:13:31.324Z,42.56
2019-02-09T12:16:05.997Z,41.82
2019-02-09T12:18:37.118Z,42.77
2019-02-09T12:21:08.026Z,42.59
2019-02-09T12:23:39.098Z,41.58
2019-02-09T12:26:10.381Z,40.29
2019-02-09T12:28:42.383Z,39.19
2019-02-09T12:31:14.880Z,38.84
2019-02-09T12:33:46.226Z,38.96
2019-02-09T12:36:17.679Z,38.94
2019-02-09T12:38:49.623Z,37.66
2019-02-09T12:41:21.604Z,37.80
2019-02-09T12:43:53.431Z,37.47
2019-02-09T12:46:25.932Z,37.94
2019-02-09T12:48:57.259Z,39.29
2019-02-09T12:51:29.261Z,39.94
2019-02-09T12:54:00.325Z,39.46
2019-02-09T12:56:32.374Z,37.34
2019-02-09T12:59:04.347Z,39.44
2019-02-09T13:01:37.575Z,38.57
2019-02-09T13:04:09.431Z,38.01
2019-02-09T13:06:40.935Z,37.73
2019-02-09T13:09:14.600Z,37.78
2019-02-09T13:11:45.496Z,37.80
2019-02-09T13:14:15.738Z,36.71
2019-02-09T13:16:47.702Z,37.25
2019-02-09T13:19:18.935Z,37.10
2019-02-09T13:21:50.773Z,35.71
2019-02-09T13:24:22.147Z,34.61
2019-02-09T13:26:53.560Z,35.51
2019-02-09T13:29:24.314Z,35.21
2019-02-09T13:31:55.213Z,34.84
2019-02-09T13:34:27.445Z,34.51
2019-02-09T13:36:58.347Z,35.44
2019-02-09T13:39:29.128Z,36.06
2019-02-09T13:41:59.942Z,36.79
2019-02-09T13:44:31.322Z,38.63
2019-02-09T13:47:03.321Z,38.88
2019-02-09T13:49:35.338Z,40.18
2019-02-09T13:52:07.442Z,40.27
2019-02-09T13:54:38.561Z,39.04
2019-02-09T13:57:12.806Z,38.68
2019-02-09T13:59:46.256Z,40.70
2019-02-09T14:02:19.978Z,40.77
2019-02-09T14:04:50.615Z,41.23
2019-02-09T14:07:22.233Z,40.35
2019-02-09T14:09:53.494Z,41.67
2019-02-09T14:12:24.200Z,42.58
2019-02-09T14:14:54.834Z,42.88
2019-02-09T14:17:26.898Z,42.48
2019-02-09T14:19:58.542Z,42.08
2019-02-09T14:22:29.338Z,42.26
2019-02-09T14:25:00.540Z,41.53
2019-02-09T14:27:32.110Z,41.46
2019-02-09T14:30:05.359Z,41.50
2019-02-09T14:32:36.701Z,41.23
2019-02-09T14:35:13.248Z,41.86
2019-02-09T14:37:46.487Z,41.62
2019-02-09T14:40:20.886Z,41.29
2019-02-09T14:42:52.222Z,40.94
2019-02-09T14:45:25.738Z,41.98
2019-02-09T14:47:58.026Z,40.97
2019-02-09T14:50:29.242Z,40.22
2019-02-09T14:53:02.775Z,41.69
2019-02-09T14:55:35.602Z,41.14
2019-02-09T14:58:07.362Z,41.69
2019-02-09T15:00:50.181Z,41.50
2019-02-09T15:03:27.266Z,42.91
2019-02-09T15:05:54.938Z,41.70
2019-02-09T15:08:25.234Z,41.74
2019-02-09T15:10:56.746Z,41.05
2019-02-09T15:13:27.522Z,41.21
2019-02-09T15:16:16.915Z,40.18
2019-02-09T15:18:50.730Z,41.47
2019-02-09T15:21:23.279Z,41.98
2019-02-09T15:23:54.403Z,43.19
2019-02-09T15:26:25.060Z,43.85
2019-02-09T15:28:56.643Z,42.72
2019-02-09T15:31:27.777Z,42.12
2019-02-09T15:34:01.203Z,41.27
2019-02-09T15:36:32.438Z,41.22
2019-02-09T15:39:05.416Z,41.81
2019-02-09T15:41:36.377Z,40.34
2019-02-09T15:44:08.286Z,39.44
2019-02-09T15:46:39.855Z,39.75
2019-02-09T15:49:12.687Z,40.93
2019-02-09T15:51:43.834Z,41.31
2019-02-09T15:54:16.992Z,40.40
2019-02-09T15:56:47.020Z,40.75
2019-02-09T15:59:17.301Z,40.17
2019-02-09T16:01:48.119Z,40.33
2019-02-09T16:04:19.970Z,39.61
2019-02-09T16:06:52.381Z,38.49
2019-02-09T16:09:25.589Z,39.26
2019-02-09T16:11:56.774Z,38.68
2019-02-09T16:14:27.878Z,39.35
2019-02-09T16:16:59.787Z,39.04
2019-02-09T16:19:38.604Z,39.26
2019-02-09T16:22:11.027Z,38.54
2019-02-09T16:24:58.572Z,39.05
2019-02-09T16:27:31.133Z,39.08
2019-02-09T16:30:01.783Z,38.52
2019-02-09T16:32:34.299Z,39.32
2019-02-09T16:35:06.739Z,37.75
2019-02-09T16:37:38.366Z,38.42
2019-02-09T16:40:15.149Z,38.58
2019-02-09T16:42:50.299Z,37.68
2019-02-09T16:45:23.757Z,39.40
2019-02-09T16:47:53.962Z,38.67
2019-02-09T16:50:24.703Z,38.39
2019-02-09T16:52:54.917Z,37.45
2019-02-09T16:55:26.071Z,38.66
2019-02-09T16:57:56.385Z,38.68
2019-02-09T17:00:31.893Z,37.97
2019-02-09T17:03:02.431Z,37.89
2019-02-09T17:05:33.162Z,37.57
2019-02-09T17:08:05.985Z,37.65
2019-02-09T17:10:36.746Z,37.96
2019-02-09T17:13:07.472Z,37.28
2019-02-09T17:15:37.967Z,36.38
2019-02-09T17:18:12.460Z,37.12
2019-02-09T17:20:43.896Z,38.85
2019-02-09T17:23:17.282Z,39.40
2019-02-09T17:25:54.172Z,38.07
2019-02-09T17:28:26.360Z,39.30
2019-02-09T17:30:58.437Z,38.27
2019-02-09T17:33:33.986Z,38.61
2019-02-09T17:36:06.806Z,38.15
2019-02-09T17:38:38.213Z,38.71
2019-02-09T17:41:11.059Z,38.50
2019-02-09T17:43:44.020Z,40.86
2019-02-09T17:46:16.404Z,38.99
2019-02-09T17:48:47.093Z,38.47
2019-02-09T17:51:18.898Z,39.60
2019-02-09T17:53:50.720Z,38.90
2019-02-09T17:56:23.893Z,39.73
2019-02-09T17:58:54.639Z,39.67
2019-02-09T18:01:24.958Z,41.26
2019-02-09T18:03:56.095Z,40.02
2019-02-09T18:06:27.765Z,39.63
2019-02-09T18:08:58.812Z,40.19
2019-02-09T18:11:30.352Z,40.90
2019-02-09T18:14:01.070Z,39.98
2019-02-09T18:16:31.717Z,41.01
2019-02-09T18:19:01.953Z,39.93
2019-02-09T18:21:33.322Z,40.36
2019-02-09T18:24:04.096Z,40.66
2019-02-09T18:26:35.667Z,40.65
2019-02-09T18:29:06.296Z,40.25
2019-02-09T18:31:38.226Z,40.76
2019-02-09T18:34:09.345Z,42.20
2019-02-09T18:36:39.568Z,42.17
2019-02-09T18:39:12.685Z,41.21
2019-02-09T18:41:44.703Z,41.48
2019-02-09T18:44:15.902Z,41.94
2019-02-09T18:46:46.609Z,42.97
2019-02-09T18:49:17.195Z,41.62
2019-02-09T18:51:47.402Z,40.87
2019-02-09T18:54:18.446Z,40.95
2019-02-09T18:56:50.467Z,41.38
2019-02-09T18:59:20.720Z,41.63
2019-02-09T19:01:52.101Z,40.10
2019-02-09T19:04:22.303Z,40.57
2019-02-09T19:06:53.978Z,39.28
2019-02-09T19:09:24.268Z,39.30
2019-02-09T19:11:54.513Z,38.47
2019-02-09T19:14:26.595Z,38.20
2019-02-09T19:16:57.906Z,38.52
2019-02-09T19:19:28.236Z,38.30
2019-02-09T19:21:58.554Z,38.24
2019-02-09T19:24:28.856Z,38.52
2019-02-09T19:26:59.617Z,38.12
2019-02-09T19:29:31.350Z,38.34
2019-02-09T19:32:01.601Z,38.48
2019-02-09T19:34:33.381Z,38.62
2019-02-09T19:37:05.630Z,39.58
2019-02-09T19:39:36.716Z,38.91
2019-02-09T19:42:08.270Z,39.62
2019-02-09T19:44:40.396Z,39.63
2019-02-09T19:47:11.460Z,39.90
2019-02-09T19:49:43.546Z,39.47
2019-02-09T19:52:16.151Z,40.33
2019-02-09T19:54:47.945Z,40.26
2019-02-09T19:57:21.591Z,40.66
2019-02-09T19:59:54.474Z,40.41
2019-02-09T20:02:25.616Z,41.62
2019-02-09T20:04:56.688Z,42.02
2019-02-09T20:07:28.536Z,41.55
2019-02-09T20:09:59.691Z,41.83
2019-02-09T20:12:29.996Z,41.89
2019-02-09T20:15:03.809Z,41.62
2019-02-09T20:17:37.632Z,41.44
2019-02-09T20:20:10.699Z,41.81
2019-02-09T20:22:42.720Z,42.36
2019-02-09T20:25:16.862Z,41.96
2019-02-09T20:27:50.100Z,42.57
2019-02-09T20:30:32.177Z,42.73
2019-02-09T20:33:03.366Z,44.28
2019-02-09T20:35:33.588Z,43.17
2019-02-09T20:38:05.464Z,43.36
2019-02-09T20:40:42.206Z,43.34
2019-02-09T20:43:15.175Z,43.34
2019-02-09T20:45:51.066Z,44.43
2019-02-09T20:48:23.075Z,43.40
2019-02-09T20:50:53.753Z,42.67
2019-02-09T20:53:24.587Z,42.06
2019-02-09T20:55:54.809Z,42.81
2019-02-09T20:58:25.832Z,42.21
2019-02-09T21:00:58.273Z,41.97
2019-02-09T21:03:29.817Z,42.03
2019-02-09T21:06:01.319Z,42.08
2019-02-09T21:08:33.006Z,42.72
2019-02-09T21:11:04.510Z,41.50
2019-02-09T21:13:35.982Z,42.40
2019-02-09T21:16:09.071Z,42.35
2019-02-09T21:18:40.973Z,42.83
2019-02-09T21:21:12.522Z,42.52
2019-02-09T21:23:43.999Z,41.93
2019-02-09T21:26:15.052Z,42.45
2019-02-09T21:28:46.110Z,42.81
2019-02-09T21:31:17.274Z,42.35
2019-02-09T21:33:48.914Z,42.47
2019-02-09T21:36:20.363Z,41.80
2019-02-09T21:38:53.067Z,42.99
2019-02-09T21:41:25.137Z,42.38
2019-02-09T21:43:55.887Z,42.13
2019-02-09T21:46:27.505Z,43.06
2019-02-09T21:48:58.265Z,42.68
2019-02-09T21:51:29.463Z,42.45
2019-02-09T21:54:00.786Z,41.94
2019-02-09T21:56:32.467Z,41.95
2019-02-09T21:59:05.059Z,42.52
2019-02-09T22:01:37.057Z,42.61
2019-02-09T22:04:08.082Z,42.12
2019-02-09T22:06:39.551Z,42.72
2019-02-09T22:09:10.461Z,42.74
2019-02-09T22:11:40.724Z,42.14
2019-02-09T22:14:12.017Z,42.57
2019-02-09T22:16:42.788Z,42.84
2019-02-09T22:19:13.009Z,42.79
2019-02-09T22:21:44.261Z,43.00
2019-02-09T22:24:15.477Z,43.35
2019-02-09T22:26:47.272Z,42.70
2019-02-09T22:29:18.289Z,42.92
2019-02-09T22:31:50.911Z,44.72
2019-02-09T22:34:23.029Z,43.82
2019-02-09T22:36:55.748Z,43.75
2019-02-09T22:39:25.994Z,43.57
2019-02-09T22:41:58.104Z,43.97
2019-02-09T22:44:28.696Z,43.04
2019-02-09T22:47:02.397Z,42.41
2019-02-09T22:49:32.688Z,43.17
2019-02-09T22:52:03.384Z,42.76
2019-02-09T22:54:34.978Z,42.88
2019-02-09T22:57:06.430Z,43.45
2019-02-09T22:59:38.684Z,43.69
2019-02-09T23:02:10.181Z,42.98
2019-02-09T23:05:27.355Z,43.19
2019-02-09T23:08:04.347Z,43.38
2019-02-09T23:10:35.322Z,42.58
2019-02-09T23:13:07.943Z,43.51
2019-02-09T23:15:39.092Z,43.58
2019-02-09T23:18:09.309Z,43.21
2019-02-09T23:20:39.512Z,42.93
2019-02-09T23:23:10.642Z,43.90
2019-02-09T23:25:42.418Z,44.07
2019-02-09T23:28:13.362Z,43.77
2019-02-09T23:30:44.621Z,43.90
2019-02-09T23:33:16.303Z,43.53
2019-02-09T23:35:47.405Z,43.18
2019-02-09T23:38:19.575Z,43.15
2019-02-09T23:40:49.982Z,44.14
2019-02-09T23:43:20.682Z,43.66
2019-02-09T23:45:51.801Z,42.67
2019-02-09T23:48:22.462Z,42.70
2019-02-09T23:50:53.571Z,42.80
2019-02-09T23:53:25.599Z,43.24
2019-02-09T23:55:56.866Z,42.77
2019-02-09T23:58:27.110Z,42.21
